Terminal Aerodrome Forecast
Issued by NWS

Home | Current Version | Previous Version | Text Only | Print | Product List | Glossary On
Versions: 1 2 3 4 5 6 7 8 9 10 11 12 13 14 15 16 17 18 19 20
000
FTUS43 KFGF 280500
TAFDVL
TAF
KDVL 280531Z 2806/2906 16007KT 3/4SM BR OVC002
     FM281300 VRB05KT 1SM BR OVC002
     FM281600 07007KT 4SM BR OVC004
     FM281900 33016G23KT P6SM OVC015
     FM290100 33024G33KT P6SM OVC015
      AMD LTD TO CLD VIS AND WIND=

USA.gov is the U.S. government's official web portal to all federal, state and local government web resources and services.